Terminal Aerodrome Forecast
Issued by NWS

Home | Current Version | Previous Version | Text Only | Print | Product List | Glossary On
Versions: 1 2 3 4 5 6 7 8 9 10 11 12 13 14 15 16 17
983
FTUS41 KPHI 250533
TAFPNE
TAF
KPNE 250533Z 2506/2606 17005KT P6SM FEW025 BKN050
      TEMPO 2509/2511 4SM BR SCT006 BKN015
     FM251100 16005KT 2SM BR OVC006
     FM251400 17010KT 5SM BR BKN015
     FM251600 17012G20KT P6SM BKN035
      TEMPO 2521/2523 27018G35KT 2SM TSRA OVC020CB
     FM252300 29012G20KT P6SM VCSH OVC050
     FM260100 29015G25KT P6SM SCT040=

USA.gov is the U.S. government's official web portal to all federal, state and local government web resources and services.